Time;durP1;ratioP1;P1;durP2;ratioP2;P2;SDS_P1;SDS_P2;PMS_P1;PMS_P2;Temp;Humidity;BMP_temperature;BMP_pressure;BME280_temperature;BME280_humidity;BME280_pressure;Samples;Min_cycle;Max_cycle;Signal;HPM_P1;HPM_P2
2022/09/22 00:01:09;;;;;;;11.88;7.43;;;;;;;8.72;76.95;99104.41;5013122;28;20029;-70
2022/09/22 00:03:39;;;;;;;12.43;8.10;;;;;;;8.71;76.19;99104.69;5019240;28;20111;-70
2022/09/22 00:06:07;;;;;;;14.98;8.52;;;;;;;8.70;76.67;99105.75;5019239;28;20038;-70
2022/09/22 00:08:35;;;;;;;15.82;7.55;;;;;;;8.68;77.00;99103.28;5021427;28;20486;-69
2022/09/22 00:11:28;;;;;;;13.90;7.85;;;;;;;8.67;76.87;99101.63;5012809;28;20049;-70
2022/09/22 00:13:57;;;;;;;15.23;7.95;;;;;;;8.66;76.96;99100.00;5013174;28;20034;-71
2022/09/22 00:16:28;;;;;;;14.07;6.93;;;;;;;8.64;76.57;99100.28;5009517;28;20026;-69
2022/09/22 00:18:53;;;;;;;12.35;7.25;;;;;;;8.63;76.55;99093.16;5013387;28;20037;-70
2022/09/22 00:21:21;;;;;;;13.93;7.35;;;;;;;8.62;76.65;99088.78;5012625;28;20022;-70
2022/09/22 00:23:46;;;;;;;11.05;7.30;;;;;;;8.63;77.33;99087.69;5012588;28;20504;-69
2022/09/22 00:26:18;;;;;;;12.13;7.25;;;;;;;8.63;76.89;99095.06;5022999;28;20026;-69
2022/09/22 00:28:46;;;;;;;11.00;7.65;;;;;;;8.61;76.33;99098.06;5017849;28;20128;-69
2022/09/22 00:31:15;;;;;;;12.10;6.45;;;;;;;8.59;77.33;99091.22;5012713;28;20041;-70
2022/09/22 00:33:41;;;;;;;9.65;6.25;;;;;;;8.57;76.90;99096.13;5014460;28;20049;-70
2022/09/22 00:36:08;;;;;;;12.43;7.88;;;;;;;8.57;76.88;99094.22;5023674;28;20057;-69
2022/09/22 00:38:33;;;;;;;11.05;6.80;;;;;;;8.56;77.37;99095.31;5017289;28;20192;-70
2022/09/22 00:41:00;;;;;;;10.27;7.18;;;;;;;8.55;77.27;99093.66;5009396;28;20025;-69
2022/09/22 00:43:29;;;;;;;10.32;6.75;;;;;;;8.54;77.35;99088.47;5010645;28;20040;-69
2022/09/22 00:46:21;;;;;;;13.43;7.78;;;;;;;8.52;77.24;99090.66;5010717;28;20022;-69
2022/09/22 00:48:58;;;;;;;17.67;8.48;;;;;;;8.52;76.85;99086.00;5009277;28;20467;-71
2022/09/22 00:51:29;;;;;;;13.48;8.05;;;;;;;8.52;77.32;99086.00;5007214;28;20057;-69
2022/09/22 00:53:56;;;;;;;13.43;7.85;;;;;;;8.54;77.19;99091.22;5006357;28;20111;-69
2022/09/22 00:56:26;;;;;;;11.88;8.10;;;;;;;8.52;77.25;99083.25;5009151;28;20030;-70
2022/09/22 00:58:57;;;;;;;11.85;8.40;;;;;;;8.51;77.30;99078.88;5011191;28;20462;-70
2022/09/22 01:01:24;;;;;;;11.23;7.50;;;;;;;8.53;77.66;99084.91;5008122;28;20076;-70
2022/09/22 01:03:50;;;;;;;11.18;7.30;;;;;;;8.53;77.40;99082.19;5008998;28;20470;-69
2022/09/22 01:06:19;;;;;;;12.30;8.25;;;;;;;8.53;77.33;99084.91;5010001;28;20104;-69
2022/09/22 01:08:45;;;;;;;14.27;8.03;;;;;;;8.53;77.87;99084.09;5010457;28;20532;-69
2022/09/22 01:11:12;;;;;;;10.65;6.95;;;;;;;8.53;77.20;99087.66;4971848;28;20027;-70
2022/09/22 01:13:40;;;;;;;9.10;6.82;;;;;;;8.54;77.61;99089.28;4970878;28;20026;-73
2022/09/22 01:16:11;;;;;;;9.20;6.93;;;;;;;8.55;77.46;99082.72;4972010;28;20039;-72
2022/09/22 01:18:58;;;;;;;10.70;7.25;;;;;;;8.55;77.43;99080.00;4968278;28;20033;-75
2022/09/22 01:21:38;;;;;;;11.88;7.35;;;;;;;8.56;77.70;99081.66;4971795;28;20656;-73
2022/09/22 01:24:33;;;;;;;10.15;7.40;;;;;;;8.56;77.81;99089.03;4969996;28;20031;-72
2022/09/22 01:27:11;;;;;;;10.75;7.38;;;;;;;8.58;77.43;99086.81;4969643;28;20031;-73
2022/09/22 01:30:15;;;;;;;9.93;7.32;;;;;;;8.56;77.81;99078.91;4970746;28;20114;-72
2022/09/22 01:32:40;;;;;;;10.23;7.13;;;;;;;8.59;77.34;99083.84;4963316;28;20126;-73
2022/09/22 01:35:15;;;;;;;11.20;8.23;;;;;;;8.58;77.64;99084.09;4970032;28;20411;-72
2022/09/22 01:38:02;;;;;;;10.57;7.20;;;;;;;8.58;77.33;99076.72;4967432;28;20122;-73
2022/09/22 01:40:34;;;;;;;10.00;6.93;;;;;;;8.59;77.65;99074.81;4970568;28;20027;-73
2022/09/22 01:43:02;;;;;;;9.68;6.60;;;;;;;8.58;77.98;99068.53;4969762;28;20034;-72
2022/09/22 01:45:29;;;;;;;11.60;7.65;;;;;;;8.58;77.55;99063.06;4972237;28;20097;-72
2022/09/22 01:48:07;;;;;;;9.77;6.85;;;;;;;8.57;77.21;99055.94;4961935;28;20035;-72
2022/09/22 01:50:39;;;;;;;10.63;7.15;;;;;;;8.60;77.81;99065.50;4965248;28;20085;-72
2022/09/22 01:53:10;;;;;;;8.68;6.35;;;;;;;8.61;77.08;99058.94;4967561;28;20038;-73
2022/09/22 01:55:39;;;;;;;9.18;6.22;;;;;;;8.64;77.75;99059.25;4967395;28;20439;-72
2022/09/22 01:58:33;;;;;;;11.85;6.88;;;;;;;8.69;77.43;99058.44;4969588;28;20114;-72
2022/09/22 02:01:17;;;;;;;8.52;6.25;;;;;;;8.74;77.99;99057.66;4964677;28;20495;-72
2022/09/22 02:03:53;;;;;;;9.43;6.15;;;;;;;8.78;77.69;99067.78;4971781;28;20651;-72
2022/09/22 02:06:42;;;;;;;7.40;5.88;;;;;;;8.82;77.34;99076.25;4964236;28;20061;-72
2022/09/22 02:09:15;;;;;;;8.87;6.70;;;;;;;8.87;78.00;99069.97;4965916;28;20134;-72
2022/09/22 02:11:41;;;;;;;9.23;6.53;;;;;;;8.91;77.94;99063.69;5000182;28;20269;-72
2022/09/22 02:14:07;;;;;;;10.40;6.70;;;;;;;8.97;77.92;99063.72;5002760;28;20477;-72
2022/09/22 02:16:33;;;;;;;10.32;6.70;;;;;;;9.03;78.25;99070.84;5005421;28;20030;-73
2022/09/22 02:18:59;;;;;;;9.93;7.05;;;;;;;9.05;77.96;99066.72;5007368;28;20036;-73
2022/09/22 02:21:26;;;;;;;10.85;6.70;;;;;;;9.06;78.06;99068.38;4998848;28;20031;-72
2022/09/22 02:23:53;;;;;;;9.95;7.25;;;;;;;9.09;77.36;99067.03;5000882;28;20363;-72
2022/09/22 02:26:27;;;;;;;11.07;7.30;;;;;;;9.11;77.37;99072.22;4997371;28;20053;-72
2022/09/22 02:29:01;;;;;;;11.57;7.28;;;;;;;9.12;77.82;99077.44;4997760;28;20022;-72
2022/09/22 02:31:30;;;;;;;10.95;7.97;;;;;;;9.15;77.04;99070.56;5000720;28;20088;-72
2022/09/22 02:33:56;;;;;;;11.85;7.60;;;;;;;9.19;78.05;99071.69;4999114;28;20157;-72
2022/09/22 02:36:48;;;;;;;10.57;7.38;;;;;;;9.19;77.68;99077.16;4997084;28;20109;-72
2022/09/22 02:39:28;;;;;;;12.15;7.40;;;;;;;9.22;77.98;99069.22;5004487;28;20033;-72
2022/09/22 02:42:17;;;;;;;12.63;8.82;;;;;;;9.27;77.55;99073.03;5008716;28;20643;-72
2022/09/22 02:44:49;;;;;;;13.57;8.82;;;;;;;9.30;77.81;99067.88;5005518;28;20100;-72
2022/09/22 02:47:49;;;;;;;11.10;8.02;;;;;;;9.29;77.18;99071.69;5008534;28;20136;-73
2022/09/22 02:50:18;;;;;;;12.60;8.23;;;;;;;9.27;77.54;99067.56;5005553;28;20128;-72
2022/09/22 02:52:43;;;;;;;13.13;7.68;;;;;;;9.23;77.23;99057.16;5010071;28;20032;-72
2022/09/22 02:55:11;;;;;;;12.07;7.93;;;;;;;9.20;77.35;99060.44;5007108;28;20537;-72
2022/09/22 02:57:36;;;;;;;13.15;8.68;;;;;;;9.17;77.37;99063.72;5009938;28;20030;-72
2022/09/22 03:00:04;;;;;;;12.77;8.25;;;;;;;9.14;77.25;99060.72;5009106;28;20093;-72
2022/09/22 03:02:29;;;;;;;13.75;8.32;;;;;;;9.10;76.89;99063.19;5009894;28;20034;-72
2022/09/22 03:04:56;;;;;;;13.60;8.70;;;;;;;9.07;77.30;99066.47;5016201;28;20037;-72
2022/09/22 03:07:21;;;;;;;14.45;9.27;;;;;;;9.03;77.56;99063.44;5017402;28;20496;-73
2022/09/22 03:09:47;;;;;;;15.18;9.57;;;;;;;9.02;77.60;99067.25;5019378;28;20053;-72
2022/09/22 03:12:12;;;;;;;16.50;10.48;;;;;;;9.01;77.59;99067.56;5029713;28;20041;-72
2022/09/22 03:14:37;;;;;;;14.00;9.05;;;;;;;9.02;77.58;99074.66;5011155;28;20117;-72
2022/09/22 03:17:03;;;;;;;15.18;9.57;;;;;;;9.02;77.63;99071.94;5009896;28;20040;-73
2022/09/22 03:19:29;;;;;;;15.75;10.10;;;;;;;9.02;77.84;99066.47;5022076;28;20030;-72
2022/09/22 03:21:54;;;;;;;16.08;10.15;;;;;;;9.01;77.42;99076.56;5007839;28;20072;-72
2022/09/22 03:24:20;;;;;;;15.63;9.73;;;;;;;8.98;77.43;99079.03;5008139;28;20461;-72
2022/09/22 03:26:46;;;;;;;13.38;9.40;;;;;;;8.96;77.11;99073.84;5009434;28;20092;-72
2022/09/22 03:29:11;;;;;;;15.63;10.23;;;;;;;8.95;77.19;99074.94;5008069;28;20029;-72
2022/09/22 03:31:36;;;;;;;15.57;10.07;;;;;;;8.92;77.84;99068.06;5010570;28;20285;-72
2022/09/22 03:34:02;;;;;;;14.60;10.18;;;;;;;8.89;77.48;99087.75;5013261;28;20050;-73
2022/09/22 03:36:27;;;;;;;17.50;10.20;;;;;;;8.89;77.72;99085.03;5027353;28;20022;-72
2022/09/22 03:38:53;;;;;;;14.43;9.25;;;;;;;8.88;78.11;99086.13;5016510;28;20116;-72
2022/09/22 03:41:19;;;;;;;16.52;9.98;;;;;;;8.87;78.22;99081.72;5033167;28;20033;-72
2022/09/22 03:43:44;;;;;;;16.40;10.60;;;;;;;8.89;77.81;99087.75;5013547;28;20061;-72
2022/09/22 03:46:10;;;;;;;14.40;9.52;;;;;;;8.90;77.85;99080.38;5024071;28;20091;-73
2022/09/22 03:48:35;;;;;;;16.02;10.18;;;;;;;8.92;77.81;99079.00;5023553;28;20103;-73
2022/09/22 03:51:01;;;;;;;14.98;9.98;;;;;;;8.93;77.95;99077.13;5024901;28;20079;-72
2022/09/22 03:53:27;;;;;;;13.77;9.43;;;;;;;8.96;77.57;99078.47;5031631;28;20025;-72
2022/09/22 03:56:07;;;;;;;16.05;11.00;;;;;;;8.98;77.97;99079.03;5012628;28;20030;-72
2022/09/22 03:58:34;;;;;;;;;;;;;;;9.02;78.04;99077.41;5016160;28;20029;-73
2022/09/22 04:00:59;;;;;;;15.35;10.48;;;;;;;9.00;77.40;99082.31;5020545;28;19927;-73
2022/09/22 04:03:25;;;;;;;14.00;10.02;;;;;;;8.98;77.83;99085.31;5013314;28;20117;-74
2022/09/22 04:05:50;;;;;;;13.55;9.70;;;;;;;8.96;77.60;99082.06;5013379;28;20030;-73
2022/09/22 04:08:16;;;;;;;14.80;10.25;;;;;;;8.94;77.66;99076.84;5016105;28;20071;-73
2022/09/22 04:10:44;;;;;;;20.42;12.85;;;;;;;8.93;77.24;99069.72;5023836;28;20120;-73
2022/09/22 04:13:10;;;;;;;19.85;12.15;;;;;;;8.92;77.71;99067.28;5018807;28;20670;-73
2022/09/22 04:15:35;;;;;;;14.63;10.10;;;;;;;8.92;77.64;99078.22;5013995;28;20041;-73
2022/09/22 04:18:01;;;;;;;14.68;10.27;;;;;;;8.96;77.72;99082.06;5022132;28;20394;-73
2022/09/22 04:20:26;;;;;;;18.08;11.80;;;;;;;8.97;77.31;99088.31;5024678;28;20518;-73
2022/09/22 04:22:52;;;;;;;18.33;11.82;;;;;;;8.93;77.58;99075.19;5018608;28;20091;-73
2022/09/22 04:25:17;;;;;;;18.45;10.88;;;;;;;8.94;78.25;99078.75;5017567;28;20402;-74
2022/09/22 04:27:43;;;;;;;15.52;9.90;;;;;;;8.96;77.97;99083.94;5017269;28;20034;-73
2022/09/22 04:30:09;;;;;;;16.33;10.70;;;;;;;8.99;77.41;99086.16;5015860;28;20037;-73
2022/09/22 04:32:34;;;;;;;16.60;10.48;;;;;;;9.02;77.71;99091.09;5021460;28;20032;-73
2022/09/22 04:35:00;;;;;;;15.10;11.18;;;;;;;9.06;78.14;99089.44;5021091;28;20033;-73
2022/09/22 04:37:25;;;;;;;16.67;10.55;;;;;;;9.06;77.68;99082.03;5030456;28;20478;-73
2022/09/22 04:39:53;;;;;;;16.15;10.43;;;;;;;9.08;78.09;99082.59;5018332;28;20092;-74
2022/09/22 04:42:19;;;;;;;20.13;11.90;;;;;;;9.10;77.77;99087.81;5024322;28;20111;-73
2022/09/22 04:44:45;;;;;;;17.23;11.18;;;;;;;9.08;78.08;99085.34;5008141;28;20549;-73
2022/09/22 04:47:11;;;;;;;20.08;11.98;;;;;;;9.07;77.37;99080.97;5028533;28;20036;-73
2022/09/22 04:49:37;;;;;;;15.38;10.32;;;;;;;9.07;77.73;99085.63;5004002;28;20018;-73
2022/09/22 04:52:03;;;;;;;19.52;12.40;;;;;;;9.08;78.20;99084.53;5008797;28;20041;-73
2022/09/22 04:54:29;;;;;;;19.38;12.43;;;;;;;9.11;77.52;99086.72;5015593;28;20041;-73
2022/09/22 04:56:54;;;;;;;17.90;11.35;;;;;;;9.14;78.09;99085.34;5019253;28;20038;-72
2022/09/22 04:59:19;;;;;;;16.92;10.52;;;;;;;9.13;77.57;99086.44;5014505;28;20037;-72
2022/09/22 05:01:45;;;;;;;18.02;11.18;;;;;;;9.16;77.54;99080.44;5009091;28;20034;-72
2022/09/22 05:04:11;;;;;;;19.52;12.02;;;;;;;9.19;77.68;99088.09;5011443;28;20085;-72
2022/09/22 05:06:36;;;;;;;16.70;11.07;;;;;;;9.21;77.21;99078.50;5020320;28;20115;-72
2022/09/22 05:09:02;;;;;;;16.98;11.18;;;;;;;9.23;77.69;99079.06;5015857;28;20025;-72
2022/09/22 05:11:29;;;;;;;16.42;10.82;;;;;;;9.26;77.53;99079.63;5014018;28;20359;-72
2022/09/22 05:13:55;;;;;;;16.73;10.73;;;;;;;9.27;77.54;99084.00;5008776;28;20142;-72
2022/09/22 05:16:22;;;;;;;17.17;10.85;;;;;;;9.27;77.47;99084.00;5007876;28;20057;-72
2022/09/22 05:18:48;;;;;;;17.23;10.90;;;;;;;9.25;77.84;99078.81;5010437;28;20433;-72
2022/09/22 05:21:16;;;;;;;16.15;10.85;;;;;;;9.27;77.92;99078.53;5012135;28;20108;-72
2022/09/22 05:23:42;;;;;;;15.60;9.90;;;;;;;9.31;77.42;99077.72;5026141;28;20033;-72
2022/09/22 05:26:07;;;;;;;16.15;10.32;;;;;;;9.33;77.92;99080.16;5025307;28;20030;-72
2022/09/22 05:28:33;;;;;;;16.33;10.15;;;;;;;9.34;77.12;99087.28;5012398;28;20112;-72
2022/09/22 05:30:58;;;;;;;16.90;10.68;;;;;;;9.35;77.68;99088.94;5014337;28;21918;-72
2022/09/22 05:33:24;;;;;;;17.52;11.02;;;;;;;9.37;77.65;99084.81;5005345;28;20025;-71
2022/09/22 05:35:49;;;;;;;20.48;12.80;;;;;;;9.36;77.59;99094.16;5005360;28;20161;-71
2022/09/22 05:38:14;;;;;;;18.55;11.88;;;;;;;9.38;77.66;99089.19;5028221;28;20536;-71
2022/09/22 05:40:40;;;;;;;18.77;11.57;;;;;;;9.38;77.67;99088.38;5020835;28;20017;-72
2022/09/22 05:43:05;;;;;;;22.45;16.02;;;;;;;9.42;77.54;99096.88;5030988;28;20179;-72
2022/09/22 05:45:31;;;;;;;21.77;14.23;;;;;;;9.44;77.49;99091.94;5018655;28;20495;-72
2022/09/22 05:47:56;;;;;;;22.45;15.55;;;;;;;9.44;77.59;99103.72;5028248;28;20027;-72
2022/09/22 05:50:24;;;;;;;18.85;11.88;;;;;;;9.48;77.27;99104.00;5014037;28;20465;-71
2022/09/22 05:52:50;;;;;;;19.67;11.98;;;;;;;9.51;77.87;99096.06;5022213;28;20030;-71
2022/09/22 05:55:16;;;;;;;24.27;15.55;;;;;;;9.52;77.26;99108.66;5013998;28;20028;-71
2022/09/22 05:57:42;;;;;;;17.40;12.05;;;;;;;9.56;77.86;99108.94;5006593;28;20022;-74
2022/09/22 06:00:09;;;;;;;18.05;11.60;;;;;;;9.58;77.69;99111.41;5015097;28;20059;-74
2022/09/22 06:02:34;;;;;;;17.83;12.50;;;;;;;9.57;77.88;99116.06;5028051;28;20053;-74
2022/09/22 06:05:00;;;;;;;21.50;13.13;;;;;;;9.59;77.60;99116.59;5017668;28;20115;-74
2022/09/22 06:07:25;;;;;;;23.42;13.40;;;;;;;9.63;77.44;99117.69;5020481;28;20033;-74
2022/09/22 06:09:51;;;;;;;21.63;12.63;;;;;;;9.65;77.15;99121.00;5013134;28;20037;-73
2022/09/22 06:12:17;;;;;;;20.13;13.13;;;;;;;9.66;77.59;99111.69;5012480;28;20107;-73
2022/09/22 06:14:43;;;;;;;20.00;12.63;;;;;;;9.67;77.42;99123.44;5009537;28;20045;-73
2022/09/22 06:17:10;;;;;;;17.73;10.93;;;;;;;9.70;77.54;99116.59;5009312;28;20042;-73
2022/09/22 06:19:39;;;;;;;18.92;11.43;;;;;;;9.69;77.19;99118.50;5006158;28;20057;-74
2022/09/22 06:22:05;;;;;;;18.60;11.30;;;;;;;9.72;77.82;99126.19;5010916;28;20065;-73
2022/09/22 06:24:31;;;;;;;17.90;11.07;;;;;;;9.74;78.14;99128.66;5021116;28;20053;-74
2022/09/22 06:26:57;;;;;;;16.85;10.65;;;;;;;9.74;77.49;99114.97;5010858;28;20033;-75
2022/09/22 06:29:23;;;;;;;16.00;10.45;;;;;;;9.73;77.39;99124.28;5006963;28;20045;-72
2022/09/22 06:31:48;;;;;;;15.05;9.52;;;;;;;9.71;77.17;99129.22;5013352;28;20049;-72
2022/09/22 06:34:14;;;;;;;15.50;9.77;;;;;;;9.69;77.39;99126.72;5013831;28;20033;-73
2022/09/22 06:36:44;;;;;;;13.57;8.65;;;;;;;9.70;76.67;99125.63;5009930;28;20390;-75
2022/09/22 06:39:11;;;;;;;15.65;9.82;;;;;;;9.73;77.76;99130.56;5029708;28;20029;-72
2022/09/22 06:41:37;;;;;;;14.13;9.52;;;;;;;9.78;77.53;99135.25;5005056;28;20478;-73
2022/09/22 06:44:04;;;;;;;13.52;8.90;;;;;;;9.80;76.73;99130.28;5006770;28;20080;-75
2022/09/22 06:46:32;;;;;;;17.42;8.68;;;;;;;9.82;77.62;99128.09;5009438;28;20393;-71
2022/09/22 06:48:58;;;;;;;14.60;9.05;;;;;;;9.87;77.18;99132.75;5010664;28;20033;-73
2022/09/22 06:51:29;;;;;;;12.60;8.25;;;;;;;9.92;77.76;99139.06;5021657;28;20026;-71
2022/09/22 06:53:55;;;;;;;13.50;7.75;;;;;;;9.94;77.46;99136.84;5017674;28;20090;-71
2022/09/22 06:56:25;;;;;;;12.45;7.63;;;;;;;9.98;77.29;99137.16;5010902;28;20101;-72
2022/09/22 06:58:51;;;;;;;12.00;6.70;;;;;;;10.01;77.73;99138.50;5014408;28;20022;-71
2022/09/22 07:01:18;;;;;;;13.88;8.20;;;;;;;10.05;77.87;99145.06;5010456;28;20037;-72
2022/09/22 07:03:44;;;;;;;13.60;8.40;;;;;;;10.11;77.68;99146.72;5011554;28;20017;-72
2022/09/22 07:06:15;;;;;;;13.30;7.28;;;;;;;10.15;77.33;99141.50;5012391;28;20553;-73
2022/09/22 07:08:41;;;;;;;11.95;8.13;;;;;;;10.19;76.95;99148.88;5028793;28;20033;-72
2022/09/22 07:11:08;;;;;;;21.30;13.40;;;;;;;10.23;77.06;99154.66;5015219;28;20042;-72
2022/09/22 07:13:39;;;;;;;17.50;9.90;;;;;;;10.30;77.49;99155.19;5025107;28;20490;-72
2022/09/22 07:16:10;;;;;;;15.73;9.70;;;;;;;10.40;77.62;99146.94;5015874;28;20022;-73
2022/09/22 07:18:40;;;;;;;11.68;7.90;;;;;;;10.50;77.43;99146.13;5019654;28;20169;-72
2022/09/22 07:21:10;;;;;;;11.00;7.63;;;;;;;10.59;77.00;99154.59;5036447;28;20421;-72
2022/09/22 07:23:36;;;;;;;11.15;7.63;;;;;;;10.66;77.02;99149.63;5035932;28;20034;-73
2022/09/22 07:26:07;;;;;;;13.05;7.93;;;;;;;10.70;77.42;99142.47;5022793;28;20033;-72
2022/09/22 07:28:34;;;;;;;11.32;7.25;;;;;;;10.70;76.79;99149.88;5011998;28;20405;-72
2022/09/22 07:31:08;;;;;;;16.27;8.93;;;;;;;10.70;77.05;99145.22;5026880;28;20527;-73
2022/09/22 07:33:35;;;;;;;11.38;7.82;;;;;;;10.75;77.36;99143.56;5035820;28;20032;-72
2022/09/22 07:36:07;;;;;;;11.55;7.82;;;;;;;10.76;76.47;99151.50;5034869;28;20033;-72
2022/09/22 07:38:35;;;;;;;21.30;11.50;;;;;;;10.76;76.73;99150.69;5036332;28;20025;-72
2022/09/22 07:41:03;;;;;;;20.42;11.05;;;;;;;10.72;76.60;99151.25;5035365;28;20420;-72
2022/09/22 07:43:29;;;;;;;14.38;8.20;;;;;;;10.75;76.88;99151.78;5035767;28;20087;-72
2022/09/22 07:45:56;;;;;;;18.42;9.25;;;;;;;10.77;76.88;99149.59;5036168;28;20033;-72
2022/09/22 07:48:36;;;;;;;15.07;7.38;;;;;;;10.85;77.15;99149.00;5036058;28;20033;-72
2022/09/22 07:51:18;;;;;;;;;;;;;;;10.95;76.91;99148.16;5036874;28;20430;-73
2022/09/22 07:53:46;;;;;;;13.00;7.60;;;;;;;10.99;76.65;99152.78;5025234;28;19957;-73
2022/09/22 07:56:14;;;;;;;11.93;7.00;;;;;;;11.05;76.15;99158.25;5016189;28;20037;-72
2022/09/22 07:58:50;;;;;;;15.50;9.65;;;;;;;11.08;76.28;99153.00;5016423;28;20026;-72
2022/09/22 08:01:18;;;;;;;12.18;7.82;;;;;;;11.09;76.72;99159.31;5019975;28;20034;-73
2022/09/22 08:03:46;;;;;;;18.77;9.50;;;;;;;11.11;76.05;99157.94;5011705;28;20067;-72
2022/09/22 08:06:13;;;;;;;12.18;7.10;;;;;;;11.16;76.19;99149.66;5014993;28;20030;-73
2022/09/22 08:08:41;;;;;;;9.65;5.88;;;;;;;11.22;76.40;99158.69;5015566;28;20033;-72
2022/09/22 08:11:15;;;;;;;7.88;5.20;;;;;;;11.27;76.49;99155.09;5015561;28;20133;-73
2022/09/22 08:13:42;;;;;;;12.25;7.28;;;;;;;11.31;76.26;99164.44;5029214;28;20021;-72
2022/09/22 08:16:10;;;;;;;8.10;5.60;;;;;;;11.32;76.00;99160.56;5034437;28;20033;-73
2022/09/22 08:18:36;;;;;;;7.10;5.40;;;;;;;11.35;75.57;99167.41;5012565;28;20026;-73
2022/09/22 08:21:03;;;;;;;8.48;5.57;;;;;;;11.36;76.19;99167.13;5012020;28;20478;-73
2022/09/22 08:23:30;;;;;;;10.27;6.60;;;;;;;11.42;76.22;99170.66;5011389;28;20507;-72
2022/09/22 08:25:56;;;;;;;9.60;6.78;;;;;;;11.47;76.11;99162.41;5010573;28;20041;-72
2022/09/22 08:28:21;;;;;;;9.98;6.38;;;;;;;11.55;75.52;99166.47;5011843;28;20526;-73
2022/09/22 08:30:47;;;;;;;9.45;5.88;;;;;;;11.59;75.49;99165.63;5010879;28;20117;-73
2022/09/22 08:33:13;;;;;;;8.68;5.85;;;;;;;11.61;75.94;99163.38;5011560;28;20073;-72
2022/09/22 08:35:49;;;;;;;7.10;5.57;;;;;;;11.63;75.53;99160.34;5011387;28;20060;-73
2022/09/22 08:38:16;;;;;;;6.75;4.82;;;;;;;11.67;75.29;99161.44;5011522;28;20026;-73
2022/09/22 08:40:43;;;;;;;6.10;4.50;;;;;;;11.71;75.38;99168.00;5011759;28;20033;-73
2022/09/22 08:43:11;;;;;;;6.47;3.97;;;;;;;11.79;75.60;99163.81;5010959;28;20033;-72
2022/09/22 08:45:39;;;;;;;8.35;4.47;;;;;;;11.87;75.05;99160.44;5016853;28;20029;-73
2022/09/22 08:53:51;;;;;;;5.65;3.33;;;;;;;12.14;74.84;99161.09;5030391;28;20098;-74
2022/09/22 08:56:29;;;;;;;5.15;3.00;;;;;;;12.21;74.44;99161.56;5030904;28;20168;-72
2022/09/22 08:59:13;;;;;;;4.50;2.90;;;;;;;12.32;74.72;99163.09;5022541;28;20076;-73
2022/09/22 09:01:51;;;;;;;8.35;5.38;;;;;;;12.40;74.06;99149.81;5006985;28;20022;-73
2022/09/22 09:04:35;;;;;;;5.78;3.20;;;;;;;12.44;73.55;99159.13;5009385;28;20033;-75
2022/09/22 09:07:22;;;;;;;7.72;4.60;;;;;;;12.46;73.44;99159.66;5017074;28;20513;-72
2022/09/22 09:10:14;;;;;;;5.57;2.92;;;;;;;12.42;73.15;99159.44;5006030;28;20388;-72
2022/09/22 09:12:58;;;;;;;6.18;3.65;;;;;;;12.31;71.77;99155.13;5009985;28;20034;-72
2022/09/22 09:15:46;;;;;;;9.52;3.70;;;;;;;12.18;72.17;99151.94;5023621;28;20410;-73
2022/09/22 09:18:19;;;;;;;3.95;2.10;;;;;;;12.09;71.56;99153.69;5014169;28;20057;-73
2022/09/22 09:20:50;;;;;;;5.47;2.83;;;;;;;12.02;71.57;99159.53;5024747;28;20029;-74
2022/09/22 09:23:32;;;;;;;4.13;2.20;;;;;;;11.99;71.35;99154.59;5015008;28;20129;-73
2022/09/22 09:25:59;;;;;;;2.78;1.48;;;;;;;12.04;71.57;99156.47;5005759;28;20406;-72
2022/09/22 09:28:34;;;;;;;3.78;2.45;;;;;;;12.06;71.04;99159.75;5013839;28;20045;-73
2022/09/22 09:31:20;;;;;;;9.15;5.15;;;;;;;12.07;71.13;99155.91;5012820;28;20075;-73
2022/09/22 09:33:55;;;;;;;4.15;2.97;;;;;;;12.12;70.66;99141.31;5011017;28;20025;-75
2022/09/22 09:36:23;;;;;;;4.68;2.85;;;;;;;12.13;70.13;99137.44;5004517;28;20079;-74
2022/09/22 09:38:56;;;;;;;4.85;2.92;;;;;;;12.19;70.73;99144.53;4997106;28;20612;-72
2022/09/22 09:41:27;;;;;;;6.80;4.38;;;;;;;12.23;70.52;99139.25;5009738;28;20103;-74
2022/09/22 09:43:54;;;;;;;6.13;3.85;;;;;;;12.25;70.15;99137.03;5009969;28;20036;-73
2022/09/22 09:46:37;;;;;;;4.57;3.05;;;;;;;12.25;70.49;99142.53;5010286;28;20466;-72
2022/09/22 09:49:05;;;;;;;3.55;1.98;;;;;;;12.23;69.66;99142.00;5010336;28;20419;-73
2022/09/22 09:51:41;;;;;;;4.60;2.50;;;;;;;12.21;69.21;99142.31;5010563;28;20029;-72
2022/09/22 09:54:08;;;;;;;4.40;2.28;;;;;;;12.24;69.06;99149.16;5029177;28;20033;-72
2022/09/22 09:56:37;;;;;;;7.10;3.75;;;;;;;12.30;68.67;99148.00;5029072;28;20052;-72
2022/09/22 10:01:53;;;;;;;2.33;1.63;;;;;;;12.48;67.99;99149.19;5019194;28;20040;-72
2022/09/22 10:04:29;;;;;;;4.32;2.40;;;;;;;12.55;67.91;99135.06;5020157;28;20044;-72
2022/09/22 10:07:11;;;;;;;2.50;1.92;;;;;;;12.55;67.60;99148.81;5010373;28;20548;-74
2022/09/22 10:09:38;;;;;;;5.03;3.00;;;;;;;12.53;67.58;99145.53;5008107;28;20050;-73
2022/09/22 10:12:07;;;;;;;6.25;3.70;;;;;;;12.49;67.17;99137.88;5008109;28;20053;-73
2022/09/22 10:14:33;;;;;;;2.60;1.50;;;;;;;12.50;67.16;99145.00;5021375;28;20076;-73
2022/09/22 10:16:59;;;;;;;2.88;1.50;;;;;;;12.49;67.03;99140.63;5024481;28;20032;-74
2022/09/22 10:19:30;;;;;;;2.10;1.40;;;;;;;12.54;67.51;99149.94;5015581;28;20033;-74
2022/09/22 10:22:28;;;;;;;2.08;1.42;;;;;;;12.60;66.80;99148.78;5029240;28;20030;-75
2022/09/22 10:24:55;;;;;;;6.93;1.98;;;;;;;12.63;66.76;99143.50;4995089;28;20428;-74
2022/09/22 10:27:23;;;;;;;3.05;1.77;;;;;;;12.65;66.54;99148.72;5027564;28;20039;-74
2022/09/22 10:30:12;;;;;;;1.50;1.17;;;;;;;12.71;66.55;99141.22;5029671;28;20049;-73
2022/09/22 10:32:37;;;;;;;2.60;1.70;;;;;;;12.80;66.29;99144.97;5029185;28;20021;-74
2022/09/22 10:35:29;;;;;;;3.22;1.50;;;;;;;12.85;66.49;99139.38;5028560;28;20028;-74
2022/09/22 10:37:59;;;;;;;4.03;2.13;;;;;;;12.89;65.75;99145.13;5028915;28;20069;-74
2022/09/22 10:40:26;;;;;;;3.45;1.60;;;;;;;12.87;64.19;99147.34;5024887;28;20383;-76
2022/09/22 10:42:56;;;;;;;4.15;1.45;;;;;;;12.82;65.00;99139.16;5028447;28;20497;-74
2022/09/22 10:45:39;;;;;;;2.47;1.83;;;;;;;12.77;64.65;99135.38;5022990;28;20026;-74
2022/09/22 10:48:25;;;;;;;3.08;1.95;;;;;;;12.78;64.02;99127.91;5020566;28;20144;-74
2022/09/22 10:51:13;;;;;;;3.92;1.85;;;;;;;12.75;64.25;99126.59;5029464;28;20036;-74
2022/09/22 10:54:16;;;;;;;4.13;2.42;;;;;;;12.84;63.92;99134.19;5017899;28;20045;-74
2022/09/22 10:56:53;;;;;;;2.40;1.52;;;;;;;12.93;64.20;99124.97;5028634;28;20030;-74
2022/09/22 10:59:19;;;;;;;3.95;1.75;;;;;;;12.99;64.59;99125.72;5028533;28;20454;-74
2022/09/22 11:01:59;;;;;;;3.28;2.08;;;;;;;13.02;63.69;99125.13;5028307;28;20067;-74
2022/09/22 11:04:51;;;;;;;3.50;2.40;;;;;;;13.06;63.94;99112.41;5027954;28;20033;-74
2022/09/22 11:13:34;;;;;;;15.65;6.68;;;;;;;13.35;63.72;99114.19;5024803;28;20041;-74
2022/09/22 11:16:26;;;;;;;4.88;2.60;;;;;;;13.45;62.94;99106.91;5007956;28;20034;-74
2022/09/22 11:19:10;;;;;;;2.33;1.73;;;;;;;13.48;62.63;99112.63;5007882;28;20030;-75
2022/09/22 11:21:54;;;;;;;3.95;1.90;;;;;;;13.48;62.30;99098.84;5008542;28;20033;-75
2022/09/22 11:24:43;;;;;;;3.22;2.00;;;;;;;13.51;62.65;99109.28;5008338;28;20486;-76
2022/09/22 11:27:24;;;;;;;3.85;2.38;;;;;;;13.59;61.91;99105.03;5008449;28;20084;-75
2022/09/22 11:30:07;;;;;;;3.47;1.90;;;;;;;13.65;61.98;99103.00;5009270;28;20036;-75
2022/09/22 11:32:48;;;;;;;3.45;1.83;;;;;;;13.68;61.66;99105.97;5026772;28;20030;-75
2022/09/22 11:35:25;;;;;;;1.90;1.60;;;;;;;13.71;61.65;99101.81;5012570;28;20030;-76
2022/09/22 11:37:57;;;;;;;2.35;1.63;;;;;;;13.78;61.26;99102.25;5011071;28;20034;-75
2022/09/22 11:40:45;;;;;;;2.75;1.98;;;;;;;13.84;60.87;99106.56;5010531;28;20038;-75
2022/09/22 11:43:17;;;;;;;4.50;2.22;;;;;;;13.87;60.92;99101.53;5010962;28;20444;-75
2022/09/22 11:45:56;;;;;;;4.40;1.95;;;;;;;13.90;60.95;99101.75;5025039;28;20021;-76
2022/09/22 11:48:42;;;;;;;2.40;2.00;;;;;;;13.97;61.14;99104.97;5016696;28;20034;-75
2022/09/22 11:51:25;;;;;;;2.75;1.80;;;;;;;14.06;61.09;99096.78;5016748;28;20034;-74
2022/09/22 11:54:11;;;;;;;2.47;1.80;;;;;;;14.14;60.79;99093.34;5020096;28;20032;-76
2022/09/22 11:56:41;;;;;;;2.70;1.60;;;;;;;14.22;61.00;99096.53;5009391;28;20060;-76
2022/09/22 11:59:28;;;;;;;2.35;1.77;;;;;;;14.23;60.81;99093.44;5015114;28;20030;-76
2022/09/22 12:01:58;;;;;;;2.70;1.85;;;;;;;14.28;60.06;99087.81;5008778;28;20030;-75
2022/09/22 12:04:36;;;;;;;4.38;2.00;;;;;;;14.33;60.74;99091.63;5012695;28;20041;-76